LTBA/IST METAR and TAF weather

Enter ICAO airport designator
Station Type Date Time Source
LTBA METAR 2021/05/14 04:20 UTC NOAA

LTBA 140420Z 22003KT CAVOK 18/13 Q1011 NOSIG


Station Type Date Time Source
LTBA Decoded METAR 2021/05/14 04:20 UTC NOAA

Istanbul / Ataturk, Turkey (LTBA) 40-58N 028-49E 37M
May 14, 2021 - 12:20 AM EDT / 2021.05.14 0420 UTC
Wind: from the SW (220 degrees) at 3 MPH (3 KT):0
Visibility: greater than 7 mile(s):0
Temperature: 64 F (18 C)
Dew Point: 55 F (13 C)
Relative Humidity: 72%
Pressure (altimeter): 29.85 in. Hg (1011 hPa)
ob: LTBA 140420Z 22003KT CAVOK 18/13 Q1011 NOSIG
cycle: 4

Station Type Date Time Source
LTBA TAF 2021/05/13 18:03 UTC NOAA

TAF LTBA 131640Z 1318/1424 VRB02KT CAVOK
TEMPO 1412/1416 23014KT

Example: see airport list